Maassluis, Netherlands
Current Conditions -  °F | °C
As of 5:25 AM on Thursday 29 Jan 2015 (Local Time) from EHRD Reporting Station
Broken Clouds Broken Clouds  
Wind Chill: 32°   Ceiling: 3600
Heat Index: 41°   Visibility: 6mi
Dew Point: 30°   Wind: 18mph
Humidity: 65%   Direction: 260°W
Pressure: 29.26"   Gusts: NA
Location:  51.92°N, 4.25°E
Report Text: EHRD 290425Z AUTO 26016KT 210V290 9999 SCT021CB SCT030 BKN036BKN047 05/M01 Q0991 TEMPO 27022G35KT 4000 -SHRASN SCT025CB
Loading
Personal Weather Stations






























Interactive Weather Map New forecast layout! Learn more

10-Day Weather Forecast

Advertisements
Track Severe Weather on mobile